Almedia, Pennsylvania
Current Conditions -  °F | °C
As of 8:55 AM on Saturday 01 Nov 2014 (Local Time) from KHZL Reporting Station
Overcast Overcast  
Wind Chill: 34°   Ceiling: 1600
Heat Index: 41°   Visibility: 10mi
Dew Point: 37°   Wind: 13mph
Humidity: 87%   Direction: 340°NNW
Pressure: 29.9"   Gusts: NA
Location:  41.0301°N, 76.4558°W
Report Text: KHZL 011255Z AUTO 34011KT 10SM SCT011 BKN016 OVC031 05/03 A2990 RMK AO2
Loading
Personal Weather Stations






























Interactive Weather Map
Tropical Storm Tracking
New forecast layout! Learn more

10-Day Weather Forecast

Advertisements
Track Severe Weather on mobile